createdAt,value
2017-09-25T00:02:02.287Z,92.40
2017-09-25T00:04:30.668Z,92.40
2017-09-25T00:06:59.146Z,92.50
2017-09-25T00:09:27.525Z,92.50
2017-09-25T00:11:55.906Z,92.40
2017-09-25T00:14:24.267Z,92.40
2017-09-25T00:16:52.962Z,92.50
2017-09-25T00:19:21.306Z,92.50
2017-09-25T00:21:50.453Z,92.50
2017-09-25T00:24:18.829Z,92.50
2017-09-25T00:26:47.022Z,92.40
2017-09-25T00:29:15.247Z,92.40
2017-09-25T00:31:43.829Z,92.50
2017-09-25T00:34:12.204Z,92.50
2017-09-25T00:36:40.587Z,92.40
2017-09-25T00:39:08.963Z,92.60
2017-09-25T00:41:37.331Z,92.60
2017-09-25T00:44:05.344Z,92.70
2017-09-25T00:46:33.884Z,92.60
2017-09-25T00:49:01.904Z,92.70
2017-09-25T00:51:29.571Z,92.60
2017-09-25T00:53:58.530Z,92.90
2017-09-25T00:56:26.905Z,92.90
2017-09-25T00:58:55.070Z,92.80
2017-09-25T01:01:34.254Z,93.00
2017-09-25T01:04:02.040Z,93.00
2017-09-25T01:06:30.404Z,93.00
2017-09-25T01:08:59.017Z,92.80
2017-09-25T01:11:27.410Z,92.80
2017-09-25T01:13:55.771Z,92.90
2017-09-25T01:16:24.146Z,92.80
2017-09-25T01:18:52.513Z,92.70
2017-09-25T01:21:20.921Z,92.60
2017-09-25T01:23:49.112Z,92.70
2017-09-25T01:26:17.292Z,92.80
2017-09-25T01:28:45.588Z,92.90
2017-09-25T01:31:14.019Z,93.00
2017-09-25T01:33:42.386Z,93.10
2017-09-25T01:36:10.923Z,93.20
2017-09-25T01:38:39.277Z,93.10
2017-09-25T01:41:07.726Z,93.20
2017-09-25T01:43:36.097Z,93.10
2017-09-25T01:46:04.451Z,93.10
2017-09-25T01:48:32.818Z,93.00
2017-09-25T01:51:01.279Z,92.90
2017-09-25T01:53:29.636Z,93.00
2017-09-25T01:55:58.036Z,92.90
2017-09-25T01:58:26.408Z,93.10
2017-09-25T02:00:54.941Z,93.00
2017-09-25T02:03:23.370Z,93.10
2017-09-25T02:05:51.843Z,93.20
2017-09-25T02:08:20.296Z,93.20
2017-09-25T02:10:48.476Z,93.10
2017-09-25T02:13:16.659Z,93.20
2017-09-25T02:15:45.011Z,93.20
2017-09-25T02:18:14.153Z,93.40
2017-09-25T02:20:42.523Z,93.30
2017-09-25T02:23:10.919Z,93.20
2017-09-25T02:25:39.298Z,93.40
2017-09-25T02:28:07.663Z,93.30
2017-09-25T02:30:36.026Z,93.40
2017-09-25T02:33:04.231Z,92.90
2017-09-25T02:35:32.407Z,93.10
2017-09-25T02:38:02.129Z,92.80
2017-09-25T02:40:31.461Z,92.80
2017-09-25T02:42:59.919Z,92.80
2017-09-25T02:45:28.316Z,92.90
2017-09-25T02:47:56.666Z,92.60
2017-09-25T02:50:25.035Z,92.70
2017-09-25T02:52:53.407Z,92.50
2017-09-25T02:55:22.039Z,92.50
2017-09-25T02:57:50.604Z,92.30
2017-09-25T03:00:18.980Z,92.20
2017-09-25T03:02:47.379Z,92.50
2017-09-25T03:05:15.978Z,92.70
2017-09-25T03:07:44.367Z,92.00
2017-09-25T03:10:12.718Z,92.30
2017-09-25T03:12:40.905Z,92.40
2017-09-25T03:15:09.294Z,92.70
2017-09-25T03:17:37.651Z,92.50
2017-09-25T03:20:06.018Z,92.60
2017-09-25T03:22:34.189Z,93.00
2017-09-25T03:25:02.583Z,93.00
2017-09-25T03:27:30.959Z,92.90
2017-09-25T03:29:59.328Z,93.10
2017-09-25T03:32:27.712Z,93.00
2017-09-25T03:34:56.077Z,92.90
2017-09-25T03:37:24.536Z,93.50
2017-09-25T03:39:53.113Z,94.00
2017-09-25T03:42:21.468Z,93.90
2017-09-25T03:44:49.830Z,93.70
2017-09-25T03:47:18.190Z,93.80
2017-09-25T03:49:46.600Z,93.70
2017-09-25T03:52:14.990Z,93.40
2017-09-25T03:54:43.353Z,93.20
2017-09-25T03:57:11.715Z,92.80
2017-09-25T03:59:40.086Z,92.90
2017-09-25T04:02:08.443Z,93.00
2017-09-25T04:04:36.806Z,92.90
2017-09-25T04:07:05.180Z,92.70
2017-09-25T04:09:33.568Z,92.90
2017-09-25T04:12:01.987Z,93.00
2017-09-25T04:14:30.422Z,93.20
2017-09-25T04:16:58.791Z,92.90
2017-09-25T04:19:27.166Z,92.90
2017-09-25T04:21:55.541Z,92.90
2017-09-25T04:24:23.966Z,93.30
2017-09-25T04:26:52.310Z,93.50
2017-09-25T04:29:20.928Z,93.20
2017-09-25T04:31:49.274Z,93.20
2017-09-25T04:34:18.411Z,93.60
2017-09-25T04:36:46.800Z,93.60
2017-09-25T04:39:15.164Z,93.70
2017-09-25T04:41:43.807Z,93.70
2017-09-25T04:44:12.199Z,93.40
2017-09-25T04:46:40.566Z,93.20
2017-09-25T04:49:08.935Z,93.00
2017-09-25T04:51:37.310Z,92.90
2017-09-25T04:54:05.696Z,93.00
2017-09-25T04:56:34.274Z,92.90
2017-09-25T04:59:02.731Z,93.00
2017-09-25T05:01:31.100Z,93.10
2017-09-25T05:03:59.724Z,93.10
2017-09-25T05:06:28.100Z,93.10
2017-09-25T05:08:56.445Z,93.00
2017-09-25T05:11:25.581Z,93.00
2017-09-25T05:13:53.945Z,93.30
2017-09-25T05:16:22.533Z,93.10
2017-09-25T05:18:51.133Z,93.10
2017-09-25T05:21:19.741Z,93.40
2017-09-25T05:23:48.274Z,93.60
2017-09-25T05:26:16.649Z,93.50
2017-09-25T05:28:44.423Z,93.60
2017-09-25T05:31:12.801Z,93.50
2017-09-25T05:33:41.174Z,93.50
2017-09-25T05:36:09.543Z,93.50
2017-09-25T05:38:37.942Z,93.30
2017-09-25T05:41:07.223Z,93.40
2017-09-25T05:43:36.047Z,93.30
2017-09-25T05:46:05.177Z,93.40
2017-09-25T05:48:33.914Z,93.40
2017-09-25T05:51:02.335Z,93.30
2017-09-25T05:53:30.717Z,93.10
2017-09-25T05:55:59.202Z,92.90
2017-09-25T05:58:27.566Z,92.90
2017-09-25T06:00:55.940Z,93.00
2017-09-25T06:03:24.319Z,93.10
2017-09-25T06:05:52.713Z,93.00
2017-09-25T06:08:21.396Z,93.20
2017-09-25T06:10:50.485Z,93.10
2017-09-25T06:13:18.676Z,93.10
2017-09-25T06:15:47.284Z,92.90
2017-09-25T06:18:16.963Z,92.90
2017-09-25T06:20:45.367Z,93.00
2017-09-25T06:23:14.651Z,93.00
2017-09-25T06:25:44.016Z,92.70
2017-09-25T06:28:12.455Z,92.70
2017-09-25T06:30:40.920Z,92.60
2017-09-25T06:33:09.864Z,92.70
2017-09-25T06:35:38.314Z,92.80
2017-09-25T06:38:07.459Z,92.60
2017-09-25T06:40:35.834Z,92.60
2017-09-25T06:43:04.214Z,92.50
2017-09-25T06:45:32.607Z,92.30
2017-09-25T06:48:01.216Z,92.10
2017-09-25T06:50:29.646Z,92.20
2017-09-25T06:52:58.018Z,92.10
2017-09-25T06:55:26.394Z,92.10
2017-09-25T06:57:54.442Z,92.10
2017-09-25T07:00:22.514Z,92.10
2017-09-25T07:02:51.197Z,92.00
2017-09-25T07:05:19.565Z,92.00
2017-09-25T07:07:48.139Z,91.90
2017-09-25T07:10:16.498Z,92.00
2017-09-25T07:12:44.871Z,91.50
2017-09-25T07:15:13.252Z,91.40
2017-09-25T07:17:41.628Z,91.50
2017-09-25T07:20:09.985Z,91.60
2017-09-25T07:22:38.372Z,91.20
2017-09-25T07:25:07.772Z,91.40
2017-09-25T07:27:36.916Z,91.10
2017-09-25T07:30:05.298Z,91.00
2017-09-25T07:32:33.875Z,90.80
2017-09-25T07:35:02.251Z,90.60
2017-09-25T07:37:30.634Z,90.20
2017-09-25T07:39:59.006Z,89.20
2017-09-25T07:42:27.378Z,88.70
2017-09-25T07:44:55.778Z,88.70
2017-09-25T07:47:24.168Z,88.80
2017-09-25T07:49:53.183Z,88.50
2017-09-25T07:52:21.556Z,87.80
2017-09-25T07:54:49.966Z,88.70
2017-09-25T07:57:18.339Z,86.80
2017-09-25T07:59:46.719Z,86.50
2017-09-25T08:02:15.111Z,87.50
2017-09-25T08:04:43.534Z,86.60
2017-09-25T08:07:12.681Z,85.50
2017-09-25T08:09:41.060Z,85.50
2017-09-25T08:12:09.447Z,84.70
2017-09-25T08:14:37.823Z,84.30
2017-09-25T08:17:06.207Z,84.00
2017-09-25T08:19:34.576Z,83.30
2017-09-25T08:22:03.749Z,82.60
2017-09-25T08:24:32.124Z,82.10
2017-09-25T08:27:01.520Z,82.70
2017-09-25T08:29:29.913Z,83.30
2017-09-25T08:31:58.284Z,83.60
2017-09-25T08:34:26.674Z,83.30
2017-09-25T08:36:55.041Z,83.70
2017-09-25T08:39:23.418Z,83.80
2017-09-25T08:41:51.795Z,82.40
2017-09-25T08:44:20.176Z,82.30
2017-09-25T08:46:48.563Z,81.60
2017-09-25T08:49:16.926Z,80.40
2017-09-25T08:51:45.361Z,80.30
2017-09-25T08:54:13.737Z,79.60
2017-09-25T08:56:42.111Z,79.60
2017-09-25T08:59:10.469Z,78.60
2017-09-25T09:01:38.970Z,77.60
2017-09-25T09:04:08.025Z,77.60
2017-09-25T09:06:36.394Z,77.10
2017-09-25T09:09:04.839Z,78.40
2017-09-25T09:11:33.228Z,78.40
2017-09-25T09:14:01.606Z,78.20
2017-09-25T09:16:30.146Z,78.20
2017-09-25T09:18:58.529Z,78.40
2017-09-25T09:21:26.915Z,77.80
2017-09-25T09:23:55.282Z,77.50
2017-09-25T09:26:23.662Z,77.10
2017-09-25T09:28:52.030Z,76.40
2017-09-25T09:31:20.708Z,76.50
2017-09-25T09:33:49.070Z,76.30
2017-09-25T09:36:17.425Z,74.60
2017-09-25T09:38:45.782Z,74.00
2017-09-25T09:41:14.189Z,74.40
2017-09-25T09:43:42.558Z,74.10
2017-09-25T09:46:10.929Z,72.60
2017-09-25T09:48:39.312Z,71.50
2017-09-25T09:51:07.674Z,71.80
2017-09-25T09:53:37.013Z,72.30
2017-09-25T09:56:05.372Z,71.80
2017-09-25T09:58:33.850Z,71.90
2017-09-25T10:01:02.245Z,70.70
2017-09-25T10:03:30.600Z,71.30
2017-09-25T10:05:59.019Z,71.50
2017-09-25T10:08:27.412Z,72.30
2017-09-25T10:10:55.903Z,72.60
2017-09-25T10:13:24.282Z,72.20
2017-09-25T10:15:52.646Z,72.30
2017-09-25T10:18:21.029Z,72.10
2017-09-25T10:20:49.662Z,71.50
2017-09-25T10:23:18.049Z,72.40
2017-09-25T10:25:46.476Z,71.10
2017-09-25T10:28:15.856Z,71.60
2017-09-25T10:30:44.276Z,72.20
2017-09-25T10:33:13.693Z,70.00
2017-09-25T10:35:42.071Z,69.90
2017-09-25T10:38:10.446Z,69.40
2017-09-25T10:40:38.923Z,68.50
2017-09-25T10:43:07.267Z,67.80
2017-09-25T10:45:35.641Z,68.40
2017-09-25T10:48:04.868Z,68.00
2017-09-25T10:50:33.382Z,67.90
2017-09-25T10:53:01.784Z,66.60
2017-09-25T10:55:30.151Z,67.30
2017-09-25T10:57:58.786Z,66.50
2017-09-25T11:00:27.296Z,64.90
2017-09-25T11:02:55.875Z,65.20
2017-09-25T11:05:24.424Z,64.10
2017-09-25T11:07:53.320Z,64.70
2017-09-25T11:10:21.751Z,64.10
2017-09-25T11:12:50.130Z,62.20
2017-09-25T11:15:18.491Z,63.60
2017-09-25T11:17:47.122Z,63.90
2017-09-25T11:20:15.524Z,63.70
2017-09-25T11:22:43.875Z,64.00
2017-09-25T11:25:13.068Z,64.70
2017-09-25T11:27:41.518Z,64.90
2017-09-25T11:30:09.900Z,65.80
2017-09-25T11:32:38.272Z,66.90
2017-09-25T11:35:06.860Z,68.50
2017-09-25T11:37:35.218Z,67.80
2017-09-25T11:40:03.569Z,68.50
2017-09-25T11:42:31.934Z,68.50
2017-09-25T11:45:00.334Z,68.10
2017-09-25T11:47:28.738Z,68.20
2017-09-25T11:49:57.103Z,68.30
2017-09-25T11:52:26.233Z,67.40
2017-09-25T11:54:54.726Z,67.40
2017-09-25T11:57:23.090Z,67.10
2017-09-25T11:59:51.687Z,68.00
2017-09-25T12:02:19.869Z,68.20
2017-09-25T12:04:48.259Z,67.30
2017-09-25T12:07:16.625Z,67.80
2017-09-25T12:09:45.036Z,67.50
2017-09-25T12:12:14.366Z,68.20
2017-09-25T12:14:42.719Z,68.10
2017-09-25T12:17:11.087Z,67.80
2017-09-25T12:19:40.210Z,67.10
2017-09-25T12:22:08.580Z,67.10
2017-09-25T12:24:37.163Z,67.30
2017-09-25T12:27:05.527Z,67.40
2017-09-25T12:29:34.120Z,67.20
2017-09-25T12:32:03.521Z,68.10
2017-09-25T12:34:31.863Z,68.10
2017-09-25T12:37:00.245Z,68.50
2017-09-25T12:39:28.617Z,68.20
2017-09-25T12:41:57.039Z,68.00
2017-09-25T12:44:25.408Z,67.40
2017-09-25T12:46:53.752Z,67.50
2017-09-25T12:49:22.148Z,67.20
2017-09-25T12:51:50.528Z,67.30
2017-09-25T12:54:18.882Z,66.80
2017-09-25T12:56:47.278Z,66.20
2017-09-25T12:59:15.666Z,66.00
2017-09-25T13:01:44.047Z,66.70
2017-09-25T13:04:12.430Z,66.60
2017-09-25T13:06:40.821Z,66.60
2017-09-25T13:09:09.364Z,66.20
2017-09-25T13:11:37.747Z,65.80
2017-09-25T13:14:06.649Z,65.80
2017-09-25T13:16:35.208Z,65.50
2017-09-25T13:19:03.564Z,65.20
2017-09-25T13:21:32.117Z,63.90
2017-09-25T13:24:00.466Z,64.50
2017-09-25T13:26:28.835Z,63.60
2017-09-25T13:28:57.194Z,63.30
2017-09-25T13:31:25.769Z,63.40
2017-09-25T13:33:54.118Z,62.50
2017-09-25T13:36:22.154Z,62.30
2017-09-25T13:38:50.531Z,62.10
2017-09-25T13:41:18.895Z,63.20
2017-09-25T13:43:47.262Z,63.40
2017-09-25T13:46:15.629Z,63.20
2017-09-25T13:48:44.000Z,63.30
2017-09-25T13:51:12.357Z,61.00
2017-09-25T13:53:40.726Z,62.90
2017-09-25T13:56:09.098Z,63.60
2017-09-25T14:03:44.938Z,62.80
2017-09-25T14:06:13.326Z,62.90
2017-09-25T14:08:41.702Z,60.10
2017-09-25T14:11:10.125Z,59.80
2017-09-25T14:13:38.712Z,60.00
2017-09-25T14:16:07.147Z,60.40
2017-09-25T14:18:35.564Z,61.10
2017-09-25T14:21:04.040Z,59.50
2017-09-25T14:23:32.726Z,59.20
2017-09-25T14:26:01.105Z,59.60
2017-09-25T14:28:29.464Z,60.20
2017-09-25T14:30:57.815Z,59.70
2017-09-25T14:33:26.949Z,61.10
2017-09-25T14:35:55.316Z,61.10
2017-09-25T14:38:23.771Z,61.00
2017-09-25T14:40:52.276Z,61.60
2017-09-25T14:43:21.661Z,61.70
2017-09-25T14:45:50.030Z,61.30
2017-09-25T14:48:19.176Z,61.80
2017-09-25T14:50:47.726Z,62.40
2017-09-25T14:53:16.170Z,62.00
2017-09-25T14:55:44.685Z,62.70
2017-09-25T14:58:13.158Z,62.50
2017-09-25T15:00:41.537Z,62.20
2017-09-25T15:03:09.900Z,61.70
2017-09-25T15:05:38.290Z,62.20
2017-09-25T15:08:06.927Z,62.00
2017-09-25T15:10:35.306Z,61.60
2017-09-25T15:13:03.683Z,61.40
2017-09-25T15:15:34.017Z,60.50
2017-09-25T15:18:02.376Z,60.30
2017-09-25T15:20:30.911Z,59.80
2017-09-25T15:22:59.517Z,59.90
2017-09-25T15:25:28.262Z,59.70
2017-09-25T15:27:56.950Z,59.70
2017-09-25T15:30:25.320Z,59.40
2017-09-25T15:32:53.693Z,59.60
2017-09-25T15:35:22.185Z,59.30
2017-09-25T15:37:50.655Z,60.00
2017-09-25T15:40:19.047Z,60.70
2017-09-25T15:42:47.395Z,61.60
2017-09-25T15:45:15.819Z,61.90
2017-09-25T15:47:44.981Z,61.80
2017-09-25T15:50:13.365Z,62.10
2017-09-25T15:52:41.733Z,62.70
2017-09-25T15:55:10.108Z,63.10
2017-09-25T15:57:39.489Z,63.50
2017-09-25T16:00:07.897Z,63.50
2017-09-25T16:02:36.288Z,64.10
2017-09-25T16:05:04.739Z,64.80
2017-09-25T16:07:33.128Z,65.10
2017-09-25T16:10:01.509Z,65.90
2017-09-25T16:12:29.890Z,65.80
2017-09-25T16:14:58.300Z,65.40
2017-09-25T16:17:26.657Z,64.80
2017-09-25T16:19:55.040Z,64.80
2017-09-25T16:22:23.409Z,65.70
2017-09-25T16:24:52.052Z,65.90
2017-09-25T16:27:20.643Z,65.90
2017-09-25T16:29:49.033Z,66.40
2017-09-25T16:32:18.133Z,66.70
2017-09-25T16:34:46.536Z,66.40
2017-09-25T16:37:14.926Z,66.90
2017-09-25T16:39:43.286Z,67.50
2017-09-25T16:42:11.707Z,68.30
2017-09-25T16:44:40.189Z,69.40
2017-09-25T16:47:08.565Z,69.10
2017-09-25T16:49:36.766Z,69.50
2017-09-25T16:52:05.140Z,69.20
2017-09-25T16:54:33.689Z,69.70
2017-09-25T16:57:02.328Z,70.10
2017-09-25T16:59:30.509Z,70.40
2017-09-25T17:01:59.540Z,71.60
2017-09-25T17:04:27.914Z,71.60
2017-09-25T17:06:56.496Z,72.30
2017-09-25T17:09:24.969Z,72.40
2017-09-25T17:11:53.364Z,72.80
2017-09-25T17:14:21.996Z,73.30
2017-09-25T17:16:51.125Z,74.20
2017-09-25T17:19:19.714Z,74.20
2017-09-25T17:21:48.084Z,74.80
2017-09-25T17:24:16.621Z,75.10
2017-09-25T17:26:45.080Z,75.20
2017-09-25T17:29:13.447Z,75.40
2017-09-25T17:31:41.891Z,75.70
2017-09-25T17:34:10.320Z,75.90
2017-09-25T17:36:38.707Z,75.90
2017-09-25T17:39:07.154Z,76.30
2017-09-25T17:41:35.515Z,76.20
2017-09-25T17:44:03.938Z,76.40
2017-09-25T17:46:32.877Z,76.80
2017-09-25T17:49:01.253Z,76.70
2017-09-25T17:51:29.620Z,77.20
2017-09-25T17:53:58.196Z,77.50
2017-09-25T17:56:26.581Z,77.70
2017-09-25T17:58:55.195Z,78.30
2017-09-25T18:01:23.627Z,79.10
2017-09-25T18:03:52.105Z,78.90
2017-09-25T18:06:20.484Z,79.00
2017-09-25T18:08:48.849Z,79.10
2017-09-25T18:11:17.437Z,79.10
2017-09-25T18:13:45.797Z,79.30
2017-09-25T18:16:14.924Z,79.80
2017-09-25T18:18:43.316Z,79.70
2017-09-25T18:21:11.698Z,79.60
2017-09-25T18:23:40.128Z,79.70
2017-09-25T18:26:09.154Z,79.70
2017-09-25T18:28:37.546Z,80.00
2017-09-25T18:31:05.965Z,80.10
2017-09-25T18:33:34.503Z,80.50
2017-09-25T18:36:02.888Z,80.60
2017-09-25T18:38:31.267Z,80.80
2017-09-25T18:40:59.648Z,81.30
2017-09-25T18:43:28.025Z,81.40
2017-09-25T18:45:56.424Z,81.80
2017-09-25T18:48:24.826Z,82.10
2017-09-25T18:50:53.247Z,82.40
2017-09-25T18:53:21.666Z,82.70
2017-09-25T18:55:50.065Z,82.80
2017-09-25T18:58:18.452Z,83.30
2017-09-25T19:00:46.822Z,83.50
2017-09-25T19:03:15.239Z,83.70
2017-09-25T19:05:43.733Z,83.80
2017-09-25T19:08:13.789Z,85.00
2017-09-25T19:10:42.217Z,84.40
2017-09-25T19:13:11.548Z,84.90
2017-09-25T19:15:39.928Z,84.90
2017-09-25T19:18:08.324Z,85.10
2017-09-25T19:20:36.736Z,85.40
2017-09-25T19:23:05.158Z,85.40
2017-09-25T19:25:33.527Z,85.80
2017-09-25T19:28:01.911Z,85.90
2017-09-25T19:30:30.289Z,86.10
2017-09-25T19:32:58.804Z,86.40
2017-09-25T19:35:27.184Z,86.50
2017-09-25T19:37:55.616Z,86.50
2017-09-25T19:40:23.683Z,86.50
2017-09-25T19:42:52.323Z,86.70
2017-09-25T19:45:22.175Z,86.90
2017-09-25T19:47:51.062Z,86.90
2017-09-25T19:50:21.773Z,87.20
2017-09-25T19:52:49.947Z,87.30
2017-09-25T19:55:22.000Z,87.50
2017-09-25T19:57:52.290Z,87.80
2017-09-25T20:00:20.482Z,87.80
2017-09-25T20:02:48.796Z,87.60
2017-09-25T20:05:17.192Z,87.60
2017-09-25T20:07:45.383Z,87.90
2017-09-25T20:12:58.056Z,88.20
2017-09-25T20:18:32.723Z,88.60
2017-09-25T20:21:01.093Z,88.90
2017-09-25T20:23:30.666Z,89.10
2017-09-25T20:25:59.134Z,89.30
2017-09-25T20:28:27.888Z,89.60
2017-09-25T20:30:56.470Z,89.50
2017-09-25T20:33:24.836Z,89.90
2017-09-25T20:35:53.287Z,90.00
2017-09-25T20:38:21.489Z,90.00
2017-09-25T20:40:53.192Z,90.00
2017-09-25T20:43:38.382Z,90.00
2017-09-25T20:46:06.745Z,90.00
2017-09-25T20:48:35.134Z,90.00
2017-09-25T20:51:02.829Z,90.10
2017-09-25T20:53:31.235Z,90.00
2017-09-25T20:56:00.374Z,90.10
2017-09-25T20:58:28.946Z,90.10
2017-09-25T21:00:57.194Z,90.10
2017-09-25T21:03:26.345Z,90.30
2017-09-25T21:05:54.574Z,90.20
2017-09-25T21:08:23.415Z,90.30
2017-09-25T21:10:51.638Z,90.40
2017-09-25T21:13:20.015Z,90.40
2017-09-25T21:15:48.462Z,90.50
2017-09-25T21:18:16.873Z,90.50
2017-09-25T21:20:45.234Z,90.60
2017-09-25T21:23:13.405Z,90.60
2017-09-25T21:25:41.980Z,90.50
2017-09-25T21:28:10.279Z,90.70
2017-09-25T21:30:38.644Z,90.80
2017-09-25T21:33:07.049Z,90.80
2017-09-25T21:35:35.431Z,91.00
2017-09-25T21:38:03.804Z,91.00
2017-09-25T21:40:32.469Z,91.00
2017-09-25T21:43:01.034Z,91.00
2017-09-25T21:45:29.418Z,90.90
2017-09-25T21:47:57.893Z,90.90
2017-09-25T21:50:26.473Z,91.20
2017-09-25T21:52:54.847Z,91.20
2017-09-25T21:55:23.211Z,91.00
2017-09-25T21:57:51.572Z,91.00
2017-09-25T22:00:20.224Z,90.90
2017-09-25T22:02:48.582Z,91.10
2017-09-25T22:05:16.950Z,91.20
2017-09-25T22:07:45.532Z,91.10
2017-09-25T22:10:13.895Z,91.20
2017-09-25T22:12:42.368Z,91.20
2017-09-25T22:15:10.849Z,91.00
2017-09-25T22:17:39.213Z,91.00
2017-09-25T22:20:07.786Z,91.00
2017-09-25T22:22:36.150Z,91.30
2017-09-25T22:25:04.547Z,90.90
2017-09-25T22:27:32.992Z,90.90
2017-09-25T22:30:03.052Z,91.00
2017-09-25T22:32:31.226Z,91.00
2017-09-25T22:34:59.407Z,91.20
2017-09-25T22:37:27.651Z,91.50
2017-09-25T22:40:00.638Z,91.70
2017-09-25T22:42:32.453Z,92.00
2017-09-25T22:45:00.648Z,92.00
2017-09-25T22:47:29.774Z,92.10
2017-09-25T22:49:57.964Z,92.10
2017-09-25T22:52:26.150Z,92.10
2017-09-25T22:54:54.384Z,92.30
2017-09-25T22:57:22.558Z,92.30
2017-09-25T22:59:51.302Z,92.40
2017-09-25T23:02:19.516Z,92.30
2017-09-25T23:04:50.230Z,92.50
2017-09-25T23:07:20.000Z,92.60
2017-09-25T23:09:53.910Z,92.60
2017-09-25T23:12:22.921Z,92.50
2017-09-25T23:14:52.907Z,92.40
2017-09-25T23:17:22.265Z,92.40
2017-09-25T23:19:50.638Z,92.30
2017-09-25T23:22:19.013Z,92.40
2017-09-25T23:24:48.232Z,92.30
2017-09-25T23:27:17.453Z,92.40
2017-09-25T23:32:54.326Z,92.20
2017-09-25T23:35:22.744Z,92.50
2017-09-25T23:37:51.328Z,92.30
2017-09-25T23:40:19.702Z,92.40
2017-09-25T23:42:48.063Z,92.40
2017-09-25T23:45:16.456Z,92.30
2017-09-25T23:47:45.063Z,92.20
2017-09-25T23:50:13.594Z,92.40
2017-09-25T23:52:41.959Z,92.70
2017-09-25T23:55:10.849Z,92.70
2017-09-25T23:57:39.241Z,92.60
